sensor_id;sensor_type;location;lat;lon;timestamp;P1;durP1;ratioP1;P2;durP2;ratioP2
75839;SDS011;64481;55.090;37.460;2022-11-10T00:00:21;7.03;;;2.88;;
75839;SDS011;64481;55.090;37.460;2022-11-10T00:05:23;3.65;;;2.28;;
75839;SDS011;64481;55.090;37.460;2022-11-10T00:10:24;4.60;;;2.72;;
75839;SDS011;64481;55.090;37.460;2022-11-10T00:15:24;7.03;;;2.53;;
75839;SDS011;64481;55.090;37.460;2022-11-10T00:20:44;5.40;;;2.50;;
75839;SDS011;64481;55.090;37.460;2022-11-10T00:25:45;7.10;;;2.92;;
75839;SDS011;64481;55.090;37.460;2022-11-10T00:30:46;5.15;;;2.70;;
75839;SDS011;64481;55.090;37.460;2022-11-10T00:35:47;8.55;;;3.13;;
75839;SDS011;64481;55.090;37.460;2022-11-10T00:40:48;5.90;;;3.30;;
75839;SDS011;64481;55.090;37.460;2022-11-10T00:45:49;4.53;;;2.65;;
75839;SDS011;64481;55.090;37.460;2022-11-10T00:50:50;3.95;;;2.60;;
75839;SDS011;64481;55.090;37.460;2022-11-10T00:55:51;4.05;;;2.67;;
75839;SDS011;64481;55.090;37.460;2022-11-10T01:00:59;4.97;;;2.70;;
75839;SDS011;64481;55.090;37.460;2022-11-10T01:06:05;4.72;;;2.42;;
75839;SDS011;64481;55.090;37.460;2022-11-10T01:11:15;3.80;;;2.30;;
75839;SDS011;64481;55.090;37.460;2022-11-10T01:16:23;4.32;;;2.53;;
75839;SDS011;64481;55.090;37.460;2022-11-10T01:21:27;3.85;;;2.20;;
75839;SDS011;64481;55.090;37.460;2022-11-10T01:26:29;4.07;;;2.13;;
75839;SDS011;64481;55.090;37.460;2022-11-10T01:31:30;4.60;;;2.58;;
75839;SDS011;64481;55.090;37.460;2022-11-10T01:36:31;4.93;;;2.55;;
75839;SDS011;64481;55.090;37.460;2022-11-10T01:41:32;4.38;;;2.28;;
75839;SDS011;64481;55.090;37.460;2022-11-10T01:46:33;5.38;;;3.47;;
75839;SDS011;64481;55.090;37.460;2022-11-10T01:51:37;4.50;;;2.40;;
75839;SDS011;64481;55.090;37.460;2022-11-10T01:56:47;5.25;;;2.53;;
75839;SDS011;64481;55.090;37.460;2022-11-10T02:01:51;5.28;;;2.55;;
75839;SDS011;64481;55.090;37.460;2022-11-10T02:06:53;5.30;;;2.40;;
75839;SDS011;64481;55.090;37.460;2022-11-10T02:11:54;4.25;;;2.35;;
75839;SDS011;64481;55.090;37.460;2022-11-10T02:16:55;4.85;;;2.53;;
75839;SDS011;64481;55.090;37.460;2022-11-10T02:21:57;4.13;;;2.33;;
75839;SDS011;64481;55.090;37.460;2022-11-10T02:26:58;3.97;;;2.33;;
75839;SDS011;64481;55.090;37.460;2022-11-10T02:31:59;5.00;;;2.25;;
75839;SDS011;64481;55.090;37.460;2022-11-10T02:37:00;4.55;;;2.40;;
75839;SDS011;64481;55.090;37.460;2022-11-10T02:42:01;4.82;;;2.67;;
75839;SDS011;64481;55.090;37.460;2022-11-10T02:47:03;4.82;;;2.67;;
75839;SDS011;64481;55.090;37.460;2022-11-10T02:52:04;3.95;;;2.30;;
75839;SDS011;64481;55.090;37.460;2022-11-10T02:57:05;4.65;;;2.50;;
75839;SDS011;64481;55.090;37.460;2022-11-10T03:02:06;3.97;;;2.50;;
75839;SDS011;64481;55.090;37.460;2022-11-10T03:07:07;4.07;;;2.45;;
75839;SDS011;64481;55.090;37.460;2022-11-10T03:12:08;3.83;;;2.50;;
75839;SDS011;64481;55.090;37.460;2022-11-10T03:17:09;4.28;;;2.40;;
75839;SDS011;64481;55.090;37.460;2022-11-10T03:22:10;4.13;;;2.17;;
75839;SDS011;64481;55.090;37.460;2022-11-10T03:27:11;4.20;;;2.58;;
75839;SDS011;64481;55.090;37.460;2022-11-10T03:32:12;3.78;;;2.25;;
75839;SDS011;64481;55.090;37.460;2022-11-10T03:37:13;5.05;;;2.58;;
75839;SDS011;64481;55.090;37.460;2022-11-10T03:42:14;3.80;;;2.17;;
75839;SDS011;64481;55.090;37.460;2022-11-10T03:47:15;5.43;;;2.60;;
75839;SDS011;64481;55.090;37.460;2022-11-10T03:52:16;4.38;;;2.33;;
75839;SDS011;64481;55.090;37.460;2022-11-10T03:57:17;4.05;;;2.80;;
75839;SDS011;64481;55.090;37.460;2022-11-10T04:02:18;4.55;;;2.70;;
75839;SDS011;64481;55.090;37.460;2022-11-10T04:07:19;5.15;;;2.50;;
75839;SDS011;64481;55.090;37.460;2022-11-10T04:12:38;4.07;;;2.67;;
75839;SDS011;64481;55.090;37.460;2022-11-10T04:17:58;4.70;;;2.42;;
75839;SDS011;64481;55.090;37.460;2022-11-10T04:23:19;3.92;;;2.60;;
75839;SDS011;64481;55.090;37.460;2022-11-10T04:28:26;4.85;;;2.50;;
75839;SDS011;64481;55.090;37.460;2022-11-10T04:33:27;4.30;;;2.67;;
75839;SDS011;64481;55.090;37.460;2022-11-10T04:38:28;4.72;;;2.45;;
75839;SDS011;64481;55.090;37.460;2022-11-10T04:43:29;5.32;;;2.78;;
75839;SDS011;64481;55.090;37.460;2022-11-10T04:48:31;6.07;;;2.75;;
75839;SDS011;64481;55.090;37.460;2022-11-10T04:53:33;3.95;;;2.25;;
75839;SDS011;64481;55.090;37.460;2022-11-10T04:58:34;5.18;;;2.78;;
75839;SDS011;64481;55.090;37.460;2022-11-10T05:03:35;4.55;;;2.55;;
75839;SDS011;64481;55.090;37.460;2022-11-10T05:08:37;3.97;;;2.72;;
75839;SDS011;64481;55.090;37.460;2022-11-10T05:13:38;4.60;;;2.97;;
75839;SDS011;64481;55.090;37.460;2022-11-10T05:18:44;4.05;;;2.55;;
75839;SDS011;64481;55.090;37.460;2022-11-10T05:23:45;4.45;;;2.38;;
75839;SDS011;64481;55.090;37.460;2022-11-10T05:28:47;3.75;;;2.50;;
75839;SDS011;64481;55.090;37.460;2022-11-10T05:33:48;4.25;;;2.80;;
75839;SDS011;64481;55.090;37.460;2022-11-10T05:38:49;3.90;;;2.55;;
75839;SDS011;64481;55.090;37.460;2022-11-10T05:43:50;4.25;;;2.78;;
75839;SDS011;64481;55.090;37.460;2022-11-10T05:48:51;3.70;;;2.45;;
75839;SDS011;64481;55.090;37.460;2022-11-10T05:53:52;5.28;;;2.65;;
75839;SDS011;64481;55.090;37.460;2022-11-10T05:58:53;4.13;;;2.75;;
75839;SDS011;64481;55.090;37.460;2022-11-10T06:03:54;4.45;;;2.42;;
75839;SDS011;64481;55.090;37.460;2022-11-10T06:08:55;4.50;;;2.88;;
75839;SDS011;64481;55.090;37.460;2022-11-10T06:13:58;4.13;;;2.55;;
75839;SDS011;64481;55.090;37.460;2022-11-10T06:19:00;4.95;;;2.58;;
75839;SDS011;64481;55.090;37.460;2022-11-10T06:24:01;4.55;;;2.50;;
75839;SDS011;64481;55.090;37.460;2022-11-10T06:29:02;4.80;;;2.83;;
75839;SDS011;64481;55.090;37.460;2022-11-10T06:34:03;4.07;;;2.33;;
75839;SDS011;64481;55.090;37.460;2022-11-10T06:39:04;3.97;;;2.80;;
75839;SDS011;64481;55.090;37.460;2022-11-10T06:44:05;3.72;;;2.53;;
75839;SDS011;64481;55.090;37.460;2022-11-10T06:49:06;3.83;;;2.47;;
75839;SDS011;64481;55.090;37.460;2022-11-10T06:54:07;3.88;;;2.33;;
75839;SDS011;64481;55.090;37.460;2022-11-10T06:59:08;3.78;;;2.40;;
75839;SDS011;64481;55.090;37.460;2022-11-10T07:04:09;4.13;;;2.20;;
75839;SDS011;64481;55.090;37.460;2022-11-10T07:09:10;4.50;;;2.60;;
75839;SDS011;64481;55.090;37.460;2022-11-10T07:14:11;4.70;;;2.45;;
75839;SDS011;64481;55.090;37.460;2022-11-10T07:19:12;4.82;;;2.50;;
75839;SDS011;64481;55.090;37.460;2022-11-10T07:24:13;3.95;;;2.17;;
75839;SDS011;64481;55.090;37.460;2022-11-10T07:29:14;4.35;;;2.22;;
75839;SDS011;64481;55.090;37.460;2022-11-10T07:34:15;4.30;;;2.25;;
75839;SDS011;64481;55.090;37.460;2022-11-10T07:39:16;4.05;;;2.40;;
75839;SDS011;64481;55.090;37.460;2022-11-10T07:44:17;3.65;;;2.22;;
75839;SDS011;64481;55.090;37.460;2022-11-10T07:49:18;3.72;;;2.30;;
75839;SDS011;64481;55.090;37.460;2022-11-10T07:54:19;7.10;;;2.80;;
75839;SDS011;64481;55.090;37.460;2022-11-10T07:59:20;4.60;;;2.38;;
75839;SDS011;64481;55.090;37.460;2022-11-10T08:04:21;7.57;;;2.88;;
75839;SDS011;64481;55.090;37.460;2022-11-10T08:09:22;3.75;;;2.65;;
75839;SDS011;64481;55.090;37.460;2022-11-10T08:14:23;10.40;;;3.55;;
75839;SDS011;64481;55.090;37.460;2022-11-10T08:19:25;13.48;;;2.90;;
75839;SDS011;64481;55.090;37.460;2022-11-10T08:24:26;6.63;;;2.97;;
75839;SDS011;64481;55.090;37.460;2022-11-10T08:29:27;4.80;;;2.65;;
75839;SDS011;64481;55.090;37.460;2022-11-10T08:34:28;6.65;;;2.83;;
75839;SDS011;64481;55.090;37.460;2022-11-10T08:39:29;4.13;;;2.42;;
75839;SDS011;64481;55.090;37.460;2022-11-10T08:44:30;4.43;;;2.90;;
75839;SDS011;64481;55.090;37.460;2022-11-10T08:49:31;5.50;;;3.03;;
75839;SDS011;64481;55.090;37.460;2022-11-10T08:54:32;6.82;;;2.88;;
75839;SDS011;64481;55.090;37.460;2022-11-10T08:59:33;6.97;;;2.90;;
75839;SDS011;64481;55.090;37.460;2022-11-10T09:04:34;6.53;;;2.92;;
75839;SDS011;64481;55.090;37.460;2022-11-10T09:09:35;7.75;;;3.38;;
75839;SDS011;64481;55.090;37.460;2022-11-10T09:14:36;5.07;;;2.83;;
75839;SDS011;64481;55.090;37.460;2022-11-10T09:19:37;5.05;;;3.20;;
75839;SDS011;64481;55.090;37.460;2022-11-10T09:24:38;6.10;;;3.17;;
75839;SDS011;64481;55.090;37.460;2022-11-10T09:29:39;7.13;;;2.92;;
75839;SDS011;64481;55.090;37.460;2022-11-10T09:34:40;5.95;;;2.70;;
75839;SDS011;64481;55.090;37.460;2022-11-10T09:39:42;4.70;;;2.55;;
75839;SDS011;64481;55.090;37.460;2022-11-10T09:44:44;4.72;;;2.53;;
75839;SDS011;64481;55.090;37.460;2022-11-10T09:49:52;5.45;;;2.83;;
75839;SDS011;64481;55.090;37.460;2022-11-10T09:54:57;5.95;;;2.38;;
75839;SDS011;64481;55.090;37.460;2022-11-10T10:00:02;6.97;;;2.63;;
75839;SDS011;64481;55.090;37.460;2022-11-10T10:15:29;5.82;;;2.40;;
75839;SDS011;64481;55.090;37.460;2022-11-10T10:20:59;5.47;;;2.20;;
75839;SDS011;64481;55.090;37.460;2022-11-10T10:26:13;14.15;;;2.92;;
75839;SDS011;64481;55.090;37.460;2022-11-10T10:36:30;5.22;;;2.17;;
75839;SDS011;64481;55.090;37.460;2022-11-10T10:41:32;5.32;;;2.88;;
75839;SDS011;64481;55.090;37.460;2022-11-10T10:46:41;5.35;;;2.60;;
75839;SDS011;64481;55.090;37.460;2022-11-10T10:51:47;4.43;;;2.63;;
75839;SDS011;64481;55.090;37.460;2022-11-10T10:56:50;5.90;;;2.63;;
75839;SDS011;64481;55.090;37.460;2022-11-10T11:07:22;5.72;;;2.90;;
75839;SDS011;64481;55.090;37.460;2022-11-10T11:17:24;5.50;;;2.85;;
75839;SDS011;64481;55.090;37.460;2022-11-10T11:44:31;6.20;;;3.17;;
75839;SDS011;64481;55.090;37.460;2022-11-10T11:49:51;4.80;;;3.10;;
75839;SDS011;64481;55.090;37.460;2022-11-10T12:00:46;5.97;;;3.63;;
75839;SDS011;64481;55.090;37.460;2022-11-10T12:16:49;5.72;;;3.28;;
75839;SDS011;64481;55.090;37.460;2022-11-10T12:22:06;5.95;;;3.38;;
75839;SDS011;64481;55.090;37.460;2022-11-10T12:27:14;5.97;;;3.75;;
75839;SDS011;64481;55.090;37.460;2022-11-10T12:32:38;5.78;;;3.35;;
75839;SDS011;64481;55.090;37.460;2022-11-10T12:37:47;5.78;;;3.33;;
75839;SDS011;64481;55.090;37.460;2022-11-10T12:43:00;7.35;;;3.33;;
75839;SDS011;64481;55.090;37.460;2022-11-10T12:48:02;6.20;;;2.90;;
75839;SDS011;64481;55.090;37.460;2022-11-10T12:53:12;10.02;;;3.15;;
75839;SDS011;64481;55.090;37.460;2022-11-10T12:58:13;5.45;;;2.50;;
75839;SDS011;64481;55.090;37.460;2022-11-10T13:03:28;5.38;;;3.20;;
75839;SDS011;64481;55.090;37.460;2022-11-10T13:08:42;5.85;;;3.08;;
75839;SDS011;64481;55.090;37.460;2022-11-10T13:13:52;4.07;;;2.60;;
75839;SDS011;64481;55.090;37.460;2022-11-10T13:19:00;8.30;;;3.25;;
75839;SDS011;64481;55.090;37.460;2022-11-10T13:29:02;7.40;;;3.03;;
75839;SDS011;64481;55.090;37.460;2022-11-10T13:39:35;6.50;;;3.28;;
75839;SDS011;64481;55.090;37.460;2022-11-10T13:44:36;6.68;;;3.13;;
75839;SDS011;64481;55.090;37.460;2022-11-10T13:55:07;4.97;;;2.80;;
75839;SDS011;64481;55.090;37.460;2022-11-10T14:10:35;5.47;;;2.90;;
75839;SDS011;64481;55.090;37.460;2022-11-10T14:15:41;6.32;;;3.60;;
75839;SDS011;64481;55.090;37.460;2022-11-10T14:20:45;6.88;;;3.13;;
75839;SDS011;64481;55.090;37.460;2022-11-10T14:25:51;10.50;;;3.28;;
75839;SDS011;64481;55.090;37.460;2022-11-10T14:30:55;7.22;;;3.53;;
75839;SDS011;64481;55.090;37.460;2022-11-10T14:41:03;6.53;;;3.22;;
75839;SDS011;64481;55.090;37.460;2022-11-10T14:46:06;5.25;;;3.38;;
75839;SDS011;64481;55.090;37.460;2022-11-10T14:51:10;5.30;;;3.47;;
75839;SDS011;64481;55.090;37.460;2022-11-10T14:56:47;6.40;;;3.30;;
75839;SDS011;64481;55.090;37.460;2022-11-10T15:01:47;7.85;;;3.67;;
75839;SDS011;64481;55.090;37.460;2022-11-10T15:06:50;7.15;;;3.90;;
75839;SDS011;64481;55.090;37.460;2022-11-10T15:17:00;6.30;;;3.85;;
75839;SDS011;64481;55.090;37.460;2022-11-10T15:27:21;6.43;;;3.58;;
75839;SDS011;64481;55.090;37.460;2022-11-10T15:32:30;10.52;;;6.90;;
75839;SDS011;64481;55.090;37.460;2022-11-10T15:37:34;11.40;;;6.72;;
75839;SDS011;64481;55.090;37.460;2022-11-10T15:42:35;10.25;;;7.10;;
75839;SDS011;64481;55.090;37.460;2022-11-10T15:47:36;10.63;;;6.50;;
75839;SDS011;64481;55.090;37.460;2022-11-10T15:52:37;11.60;;;7.50;;
75839;SDS011;64481;55.090;37.460;2022-11-10T15:57:38;12.07;;;8.00;;
75839;SDS011;64481;55.090;37.460;2022-11-10T16:02:40;13.75;;;8.73;;
75839;SDS011;64481;55.090;37.460;2022-11-10T16:07:41;12.27;;;7.38;;
75839;SDS011;64481;55.090;37.460;2022-11-10T16:12:42;12.30;;;6.85;;
75839;SDS011;64481;55.090;37.460;2022-11-10T16:17:44;11.63;;;7.00;;
75839;SDS011;64481;55.090;37.460;2022-11-10T16:22:45;10.13;;;6.10;;
75839;SDS011;64481;55.090;37.460;2022-11-10T16:27:46;13.18;;;7.70;;
75839;SDS011;64481;55.090;37.460;2022-11-10T16:32:47;12.52;;;8.13;;
75839;SDS011;64481;55.090;37.460;2022-11-10T16:37:48;9.77;;;6.82;;
75839;SDS011;64481;55.090;37.460;2022-11-10T16:42:50;14.52;;;6.40;;
75839;SDS011;64481;55.090;37.460;2022-11-10T16:47:51;9.23;;;5.93;;
75839;SDS011;64481;55.090;37.460;2022-11-10T16:52:53;10.93;;;5.97;;
75839;SDS011;64481;55.090;37.460;2022-11-10T16:57:54;8.70;;;6.07;;
75839;SDS011;64481;55.090;37.460;2022-11-10T17:03:15;9.85;;;5.05;;
75839;SDS011;64481;55.090;37.460;2022-11-10T17:08:19;13.25;;;6.38;;
75839;SDS011;64481;55.090;37.460;2022-11-10T17:13:22;8.15;;;5.60;;
75839;SDS011;64481;55.090;37.460;2022-11-10T17:18:23;9.10;;;5.70;;
75839;SDS011;64481;55.090;37.460;2022-11-10T17:23:24;9.65;;;5.63;;
75839;SDS011;64481;55.090;37.460;2022-11-10T17:28:26;12.80;;;5.20;;
75839;SDS011;64481;55.090;37.460;2022-11-10T17:33:27;12.00;;;6.03;;
75839;SDS011;64481;55.090;37.460;2022-11-10T17:38:28;9.20;;;4.97;;
75839;SDS011;64481;55.090;37.460;2022-11-10T17:43:30;8.48;;;5.30;;
75839;SDS011;64481;55.090;37.460;2022-11-10T17:48:31;9.30;;;5.13;;
75839;SDS011;64481;55.090;37.460;2022-11-10T17:53:32;9.15;;;5.45;;
75839;SDS011;64481;55.090;37.460;2022-11-10T17:58:33;8.60;;;5.15;;
75839;SDS011;64481;55.090;37.460;2022-11-10T18:03:34;6.85;;;5.20;;
75839;SDS011;64481;55.090;37.460;2022-11-10T18:08:36;8.48;;;5.30;;
75839;SDS011;64481;55.090;37.460;2022-11-10T18:13:38;9.10;;;5.18;;
75839;SDS011;64481;55.090;37.460;2022-11-10T18:18:40;8.93;;;5.35;;
75839;SDS011;64481;55.090;37.460;2022-11-10T18:23:42;7.55;;;5.45;;
75839;SDS011;64481;55.090;37.460;2022-11-10T18:28:43;8.15;;;5.20;;
75839;SDS011;64481;55.090;37.460;2022-11-10T18:33:48;8.10;;;5.00;;
75839;SDS011;64481;55.090;37.460;2022-11-10T18:38:49;8.38;;;5.32;;
75839;SDS011;64481;55.090;37.460;2022-11-10T18:43:50;10.38;;;5.07;;
75839;SDS011;64481;55.090;37.460;2022-11-10T18:48:51;8.65;;;5.13;;
75839;SDS011;64481;55.090;37.460;2022-11-10T18:53:52;10.20;;;5.18;;
75839;SDS011;64481;55.090;37.460;2022-11-10T18:58:54;8.77;;;5.03;;
75839;SDS011;64481;55.090;37.460;2022-11-10T19:03:55;6.13;;;4.40;;
75839;SDS011;64481;55.090;37.460;2022-11-10T19:08:56;8.43;;;4.68;;
75839;SDS011;64481;55.090;37.460;2022-11-10T19:13:57;9.88;;;4.47;;
75839;SDS011;64481;55.090;37.460;2022-11-10T19:19:00;8.43;;;4.65;;
75839;SDS011;64481;55.090;37.460;2022-11-10T19:24:01;11.30;;;4.95;;
75839;SDS011;64481;55.090;37.460;2022-11-10T19:29:02;9.18;;;5.25;;
75839;SDS011;64481;55.090;37.460;2022-11-10T19:34:03;7.32;;;4.88;;
75839;SDS011;64481;55.090;37.460;2022-11-10T19:39:05;8.93;;;5.90;;
75839;SDS011;64481;55.090;37.460;2022-11-10T19:44:07;11.23;;;6.72;;
75839;SDS011;64481;55.090;37.460;2022-11-10T19:49:08;13.35;;;7.03;;
75839;SDS011;64481;55.090;37.460;2022-11-10T19:54:12;13.32;;;7.70;;
75839;SDS011;64481;55.090;37.460;2022-11-10T19:59:13;12.48;;;7.43;;
75839;SDS011;64481;55.090;37.460;2022-11-10T20:04:15;11.85;;;7.10;;
75839;SDS011;64481;55.090;37.460;2022-11-10T20:09:16;11.95;;;6.80;;
75839;SDS011;64481;55.090;37.460;2022-11-10T20:14:17;11.63;;;7.45;;
75839;SDS011;64481;55.090;37.460;2022-11-10T20:19:18;11.68;;;7.20;;
75839;SDS011;64481;55.090;37.460;2022-11-10T20:24:19;13.15;;;6.78;;
75839;SDS011;64481;55.090;37.460;2022-11-10T20:29:20;11.77;;;6.47;;
75839;SDS011;64481;55.090;37.460;2022-11-10T20:34:21;11.95;;;6.57;;
75839;SDS011;64481;55.090;37.460;2022-11-10T20:39:23;9.15;;;6.72;;
75839;SDS011;64481;55.090;37.460;2022-11-10T20:44:24;10.75;;;6.82;;
75839;SDS011;64481;55.090;37.460;2022-11-10T20:49:25;9.98;;;5.93;;
75839;SDS011;64481;55.090;37.460;2022-11-10T20:54:26;10.10;;;6.40;;
75839;SDS011;64481;55.090;37.460;2022-11-10T20:59:27;12.32;;;6.82;;
75839;SDS011;64481;55.090;37.460;2022-11-10T21:04:28;12.60;;;6.30;;
75839;SDS011;64481;55.090;37.460;2022-11-10T21:09:29;9.43;;;5.57;;
75839;SDS011;64481;55.090;37.460;2022-11-10T21:14:30;9.50;;;6.00;;
75839;SDS011;64481;55.090;37.460;2022-11-10T21:19:32;10.82;;;6.00;;
75839;SDS011;64481;55.090;37.460;2022-11-10T21:24:34;11.18;;;6.50;;
75839;SDS011;64481;55.090;37.460;2022-11-10T21:29:35;11.15;;;5.50;;
75839;SDS011;64481;55.090;37.460;2022-11-10T21:34:36;12.18;;;5.78;;
75839;SDS011;64481;55.090;37.460;2022-11-10T21:39:37;10.18;;;5.90;;
75839;SDS011;64481;55.090;37.460;2022-11-10T21:44:38;10.50;;;5.88;;
75839;SDS011;64481;55.090;37.460;2022-11-10T21:49:39;9.35;;;6.07;;
75839;SDS011;64481;55.090;37.460;2022-11-10T21:54:40;8.20;;;5.43;;
75839;SDS011;64481;55.090;37.460;2022-11-10T21:59:41;9.05;;;5.38;;
75839;SDS011;64481;55.090;37.460;2022-11-10T22:04:42;8.13;;;5.18;;
75839;SDS011;64481;55.090;37.460;2022-11-10T22:09:43;10.30;;;5.75;;
75839;SDS011;64481;55.090;37.460;2022-11-10T22:15:03;7.97;;;5.03;;
75839;SDS011;64481;55.090;37.460;2022-11-10T22:20:23;7.95;;;4.82;;
75839;SDS011;64481;55.090;37.460;2022-11-10T22:25:24;8.18;;;5.10;;
75839;SDS011;64481;55.090;37.460;2022-11-10T22:30:25;8.27;;;4.78;;
75839;SDS011;64481;55.090;37.460;2022-11-10T22:35:26;9.98;;;4.85;;
75839;SDS011;64481;55.090;37.460;2022-11-10T22:40:42;8.38;;;5.15;;
75839;SDS011;64481;55.090;37.460;2022-11-10T22:46:02;9.00;;;5.25;;
75839;SDS011;64481;55.090;37.460;2022-11-10T22:51:03;9.65;;;5.45;;
75839;SDS011;64481;55.090;37.460;2022-11-10T22:56:04;6.78;;;4.57;;
75839;SDS011;64481;55.090;37.460;2022-11-10T23:01:06;9.25;;;5.03;;
75839;SDS011;64481;55.090;37.460;2022-11-10T23:06:08;8.35;;;5.00;;
75839;SDS011;64481;55.090;37.460;2022-11-10T23:11:10;7.43;;;4.93;;
75839;SDS011;64481;55.090;37.460;2022-11-10T23:16:21;8.07;;;4.63;;
75839;SDS011;64481;55.090;37.460;2022-11-10T23:21:24;8.48;;;5.00;;
75839;SDS011;64481;55.090;37.460;2022-11-10T23:26:27;7.50;;;4.50;;
75839;SDS011;64481;55.090;37.460;2022-11-10T23:36:34;8.85;;;4.78;;
75839;SDS011;64481;55.090;37.460;2022-11-10T23:41:35;10.07;;;4.60;;
75839;SDS011;64481;55.090;37.460;2022-11-10T23:46:36;8.02;;;4.53;;
75839;SDS011;64481;55.090;37.460;2022-11-10T23:51:37;7.30;;;4.65;;
75839;SDS011;64481;55.090;37.460;2022-11-10T23:56:38;6.93;;;4.55;;
